Time;durP1;ratioP1;P1;durP2;ratioP2;P2;SDS_P1;SDS_P2;PMS_P1;PMS_P2;Temp;Humidity;BMP_temperature;BMP_pressure;BME280_temperature;BME280_humidity;BME280_pressure;Samples;Min_cycle;Max_cycle;Signal;HPM_P1;HPM_P2
2024/04/24 00:00:25;;;;;;;1.50;1.20;;;7.60;98.20;;;;;;5355732;26;21018;-75
2024/04/24 00:02:54;;;;;;;1.50;1.20;;;7.60;98.20;;;;;;5359659;26;21053;-74
2024/04/24 00:05:22;;;;;;;1.50;1.20;;;7.60;98.20;;;;;;5357653;26;20939;-75
2024/04/24 00:07:51;;;;;;;1.50;1.30;;;7.60;98.20;;;;;;5364195;26;20492;-76
2024/04/24 00:10:19;;;;;;;1.50;1.30;;;7.60;98.20;;;;;;5356484;26;20689;-76
2024/04/24 00:12:47;;;;;;;1.50;1.30;;;7.60;98.20;;;;;;5361096;26;20478;-74
2024/04/24 00:15:16;;;;;;;1.50;1.30;;;7.50;98.20;;;;;;5358200;26;20592;-75
2024/04/24 00:17:47;;;;;;;1.50;1.20;;;7.50;98.20;;;;;;5362060;26;20508;-75
2024/04/24 00:20:15;;;;;;;1.50;1.40;;;7.50;98.20;;;;;;5357513;26;21132;-74
2024/04/24 00:22:44;;;;;;;1.50;1.30;;;7.40;98.20;;;;;;5366384;26;20537;-75
2024/04/24 00:25:12;;;;;;;1.50;1.30;;;7.50;98.20;;;;;;5358430;26;21577;-75
2024/04/24 00:27:41;;;;;;;1.50;1.20;;;7.40;98.20;;;;;;5354549;26;20906;-75
2024/04/24 00:30:12;;;;;;;1.50;1.33;;;7.40;98.20;;;;;;5356635;26;20484;-76
2024/04/24 00:32:41;;;;;;;1.50;1.20;;;7.40;98.20;;;;;;5339438;26;20576;-75
2024/04/24 00:35:12;;;;;;;1.50;1.23;;;7.40;98.20;;;;;;5359457;26;20877;-75
2024/04/24 00:37:40;;;;;;;1.50;1.40;;;7.40;98.20;;;;;;5339106;26;20878;-74
2024/04/24 00:40:10;;;;;;;1.50;1.20;;;7.30;98.20;;;;;;5357544;26;20470;-75
2024/04/24 00:42:38;;;;;;;1.50;1.20;;;7.30;98.20;;;;;;5343188;26;20616;-75
2024/04/24 00:45:07;;;;;;;1.50;1.20;;;7.20;98.20;;;;;;5357754;26;20476;-77
2024/04/24 00:47:38;;;;;;;1.50;1.20;;;7.20;98.20;;;;;;5343166;26;20592;-76
2024/04/24 00:50:07;;;;;;;1.50;1.20;;;7.10;98.20;;;;;;5358603;26;20488;-75
2024/04/24 00:52:38;;;;;;;1.50;1.20;;;7.10;98.20;;;;;;5341323;26;20498;-75
2024/04/24 00:55:07;;;;;;;1.50;1.30;;;7.00;98.20;;;;;;5361127;26;20551;-75
2024/04/24 00:57:35;;;;;;;1.50;1.33;;;7.00;98.20;;;;;;5343218;26;20918;-75
2024/04/24 01:00:04;;;;;;;1.50;1.40;;;6.90;98.20;;;;;;5361830;26;20473;-76
2024/04/24 01:02:32;;;;;;;2.70;2.50;;;6.90;98.20;;;;;;5338839;26;20610;-75
2024/04/24 01:05:01;;;;;;;1.50;1.30;;;6.80;98.20;;;;;;5358180;26;20480;-75
2024/04/24 01:07:29;;;;;;;1.50;1.30;;;6.80;98.20;;;;;;5351342;26;20942;-75
2024/04/24 01:10:00;;;;;;;1.47;1.20;;;6.80;98.20;;;;;;5352070;26;20561;-75
2024/04/24 01:12:29;;;;;;;1.50;1.40;;;6.70;98.20;;;;;;5352761;26;20504;-75
2024/04/24 01:14:57;;;;;;;1.50;1.23;;;6.70;98.20;;;;;;5351421;26;20573;-75
2024/04/24 01:17:26;;;;;;;1.50;1.20;;;6.70;98.20;;;;;;5317108;26;20514;-75
2024/04/24 01:19:56;;;;;;;1.50;1.30;;;6.60;98.20;;;;;;5350402;26;20473;-75
2024/04/24 01:22:38;;;;;;;1.50;1.23;;;6.70;98.20;;;;;;5355470;26;20958;-75
2024/04/24 01:25:17;;;;;;;1.50;1.30;;;6.60;98.20;;;;;;5361883;26;20460;-74
2024/04/24 01:27:48;;;;;;;1.50;1.20;;;6.60;98.20;;;;;;5318829;26;20622;-74
2024/04/24 01:30:16;;;;;;;1.50;1.30;;;6.60;98.20;;;;;;5347953;26;20466;-74
2024/04/24 01:32:45;;;;;;;1.50;1.20;;;6.60;98.20;;;;;;5348991;26;20496;-74
2024/04/24 01:35:13;;;;;;;1.50;1.30;;;6.60;98.20;;;;;;5361981;26;20586;-75
2024/04/24 01:37:42;;;;;;;1.50;1.30;;;6.60;98.20;;;;;;5316965;26;20516;-75
2024/04/24 01:40:11;;;;;;;1.50;1.30;;;6.60;98.20;;;;;;5351881;26;20848;-74
2024/04/24 01:42:39;;;;;;;1.50;1.30;;;6.60;98.20;;;;;;5347535;26;20493;-74
2024/04/24 01:45:10;;;;;;;1.50;1.20;;;6.60;98.20;;;;;;5354796;26;20524;-75
2024/04/24 01:47:38;;;;;;;1.50;1.30;;;6.60;98.20;;;;;;5339292;26;20620;-75
2024/04/24 01:50:07;;;;;;;1.50;1.30;;;6.70;98.20;;;;;;5346130;26;21130;-75
2024/04/24 01:52:35;;;;;;;1.53;1.30;;;6.60;98.20;;;;;;5315881;26;20507;-75
2024/04/24 01:55:04;;;;;;;1.50;1.30;;;6.60;98.20;;;;;;5351915;26;21128;-74
2024/04/24 01:57:32;;;;;;;1.50;1.20;;;6.70;98.20;;;;;;5365313;26;20563;-74
2024/04/24 02:00:03;;;;;;;1.50;1.30;;;6.70;98.20;;;;;;5361558;26;20529;-75
2024/04/24 02:02:34;;;;;;;1.50;1.30;;;6.60;98.20;;;;;;5327911;26;20605;-74
2024/04/24 02:05:02;;;;;;;1.50;1.20;;;6.60;98.20;;;;;;5362031;26;20935;-74
2024/04/24 02:07:30;;;;;;;1.60;1.43;;;6.60;98.20;;;;;;5339675;26;21136;-74
2024/04/24 02:09:56;;;;;;;1.50;1.30;;;6.60;98.20;;;;;;5355358;26;20541;-74
2024/04/24 02:12:25;;;;;;;1.50;1.30;;;6.60;98.20;;;;;;5348943;26;20592;-75
2024/04/24 02:14:53;;;;;;;1.50;1.30;;;6.60;98.20;;;;;;5365766;26;20375;-74
2024/04/24 02:17:21;;;;;;;1.50;1.30;;;6.60;98.20;;;;;;5350611;26;20613;-74
2024/04/24 02:19:52;;;;;;;1.50;1.20;;;6.60;98.20;;;;;;5353023;26;21192;-74
2024/04/24 02:22:21;;;;;;;1.50;1.20;;;6.60;98.20;;;;;;5334612;26;20593;-75
2024/04/24 02:27:33;;;;;;;1.50;1.20;;;6.60;98.20;;;;;;5327767;26;20558;-76
2024/04/24 02:30:01;;;;;;;1.50;1.30;;;6.60;98.20;;;;;;5361317;26;20607;-75
2024/04/24 02:32:30;;;;;;;1.50;1.30;;;6.60;98.20;;;;;;5361598;26;20503;-75
2024/04/24 02:35:01;;;;;;;1.50;1.20;;;6.60;98.20;;;;;;5360968;26;20722;-75
2024/04/24 02:37:30;;;;;;;1.50;1.30;;;6.60;98.20;;;;;;5351154;26;20992;-74
2024/04/24 02:39:58;;;;;;;1.50;1.20;;;6.60;98.20;;;;;;5357057;26;20473;-75
2024/04/24 02:42:26;;;;;;;1.50;1.20;;;6.50;98.20;;;;;;5328574;26;20581;-75
2024/04/24 02:44:55;;;;;;;1.50;1.40;;;6.50;98.20;;;;;;5357817;26;20465;-75
2024/04/24 02:47:23;;;;;;;1.50;1.20;;;6.50;98.20;;;;;;5333686;26;20616;-74
2024/04/24 02:49:53;;;;;;;1.50;1.40;;;6.50;98.20;;;;;;5351081;26;20533;-74
2024/04/24 02:52:24;;;;;;;1.50;1.27;;;6.50;98.20;;;;;;5353666;26;20496;-75
2024/04/24 02:54:52;;;;;;;1.50;1.20;;;6.50;98.20;;;;;;5362543;26;20544;-75
2024/04/24 02:57:21;;;;;;;1.50;1.20;;;6.50;98.20;;;;;;5351090;26;20496;-74
2024/04/24 02:59:49;;;;;;;1.50;1.20;;;6.50;98.20;;;;;;5358797;26;20620;-74
2024/04/24 03:02:18;;;;;;;1.50;1.30;;;6.50;98.20;;;;;;5340790;26;20581;-75
2024/04/24 03:04:46;;;;;;;1.50;1.20;;;6.40;98.20;;;;;;5358528;26;20595;-74
2024/04/24 03:07:14;;;;;;;1.50;1.20;;;6.40;98.20;;;;;;5333668;26;20624;-74
2024/04/24 03:09:45;;;;;;;1.50;1.30;;;6.40;98.20;;;;;;5358213;26;20481;-74
2024/04/24 03:12:14;;;;;;;1.50;1.23;;;6.40;98.20;;;;;;5336028;26;21023;-74
2024/04/24 03:14:42;;;;;;;1.50;1.40;;;6.40;98.20;;;;;;5362433;26;20808;-75
2024/04/24 03:17:10;;;;;;;1.50;1.30;;;6.40;98.20;;;;;;5354707;26;20496;-76
2024/04/24 03:19:39;;;;;;;1.50;1.40;;;6.40;98.20;;;;;;5366127;26;20500;-74
2024/04/24 03:22:07;;;;;;;1.50;1.30;;;6.40;98.20;;;;;;5368400;26;20492;-74
2024/04/24 03:24:36;;;;;;;1.50;1.30;;;6.40;98.20;;;;;;5360589;26;21006;-74
2024/04/24 03:27:07;;;;;;;1.50;1.30;;;6.40;98.20;;;;;;5364218;26;20505;-75
2024/04/24 03:29:36;;;;;;;1.50;1.40;;;6.40;98.20;;;;;;5370558;26;20541;-75
2024/04/24 03:32:05;;;;;;;1.50;1.30;;;6.40;98.20;;;;;;5357600;26;20491;-75
2024/04/24 03:34:33;;;;;;;1.50;1.30;;;6.40;98.20;;;;;;5370570;26;20515;-74
2024/04/24 03:37:02;;;;;;;1.50;1.20;;;6.40;98.20;;;;;;5358464;26;20556;-74
2024/04/24 03:39:30;;;;;;;1.50;1.23;;;6.40;98.20;;;;;;5362751;26;20969;-75
2024/04/24 03:41:59;;;;;;;1.50;1.30;;;6.40;98.20;;;;;;5360204;26;20576;-75
2024/04/24 03:44:30;;;;;;;1.50;1.30;;;6.40;98.20;;;;;;5373512;26;20575;-75
2024/04/24 03:46:58;;;;;;;1.50;1.30;;;6.30;98.20;;;;;;5355162;26;20598;-74
2024/04/24 03:49:24;;;;;;;1.50;1.20;;;6.30;98.20;;;;;;5364344;26;20482;-75
2024/04/24 03:51:52;;;;;;;1.50;1.30;;;6.30;98.20;;;;;;5362045;26;20598;-76
2024/04/24 03:54:21;;;;;;;1.50;1.40;;;6.30;98.20;;;;;;5364801;26;20346;-75
2024/04/24 03:56:49;;;;;;;1.50;1.20;;;6.30;98.20;;;;;;5358066;26;21415;-75
2024/04/24 03:59:18;;;;;;;1.50;1.40;;;6.30;98.20;;;;;;5360024;26;20586;-74
2024/04/24 04:01:49;;;;;;;1.50;1.20;;;6.30;98.20;;;;;;5357334;26;20538;-75
2024/04/24 04:04:18;;;;;;;1.50;1.20;;;6.30;98.20;;;;;;5362813;26;20468;-74
2024/04/24 04:06:46;;;;;;;1.50;1.20;;;6.30;98.20;;;;;;5356441;26;20492;-75
2024/04/24 04:09:15;;;;;;;1.50;1.20;;;6.30;98.20;;;;;;5369366;26;20473;-75
2024/04/24 04:11:44;;;;;;;1.50;1.30;;;6.30;98.20;;;;;;5354979;26;20492;-74
2024/04/24 04:14:12;;;;;;;1.50;1.20;;;6.30;98.20;;;;;;5368296;26;20594;-74
2024/04/24 04:16:41;;;;;;;1.50;1.30;;;6.30;98.20;;;;;;5358113;26;20579;-74
2024/04/24 04:19:12;;;;;;;1.50;1.20;;;6.30;98.20;;;;;;5366631;26;21030;-75
2024/04/24 04:21:41;;;;;;;1.50;1.27;;;6.30;98.20;;;;;;5360585;26;20497;-74
2024/04/24 04:24:10;;;;;;;1.50;1.30;;;6.20;98.20;;;;;;5359789;26;20472;-74
2024/04/24 04:26:38;;;;;;;1.50;1.30;;;6.20;98.20;;;;;;5355138;26;20542;-74
2024/04/24 04:29:07;;;;;;;1.50;1.30;;;6.20;98.20;;;;;;5372176;26;20481;-74
2024/04/24 04:31:36;;;;;;;1.50;1.30;;;6.20;98.20;;;;;;5355120;26;20563;-74
2024/04/24 04:34:05;;;;;;;1.50;1.30;;;6.20;98.20;;;;;;5365068;26;20515;-75
2024/04/24 04:36:37;;;;;;;1.50;1.20;;;6.20;98.20;;;;;;5361416;26;20509;-74
2024/04/24 04:39:06;;;;;;;1.50;1.30;;;6.20;98.20;;;;;;5370646;26;20774;-75
2024/04/24 04:41:35;;;;;;;1.50;1.37;;;6.20;98.20;;;;;;5354049;26;20485;-75
2024/04/24 04:44:03;;;;;;;1.50;1.30;;;6.20;98.20;;;;;;5367538;26;21315;-74
2024/04/24 04:46:32;;;;;;;1.50;1.30;;;6.20;98.20;;;;;;5355362;26;20548;-75
2024/04/24 04:49:02;;;;;;;1.50;1.30;;;6.20;98.20;;;;;;5363698;26;20816;-74
2024/04/24 04:51:31;;;;;;;1.50;1.30;;;6.20;98.20;;;;;;5356487;26;21173;-74
2024/04/24 04:54:02;;;;;;;1.50;1.30;;;6.20;98.20;;;;;;5365140;26;20719;-75
2024/04/24 04:56:31;;;;;;;1.50;1.20;;;6.20;98.20;;;;;;5354868;26;20510;-75
2024/04/24 04:59:00;;;;;;;1.50;1.30;;;6.20;98.20;;;;;;5368550;26;20468;-75
2024/04/24 05:01:30;;;;;;;1.50;1.30;;;6.20;98.20;;;;;;5360255;26;20535;-74
2024/04/24 05:03:59;;;;;;;1.50;1.23;;;6.20;98.20;;;;;;5367582;26;21085;-75
2024/04/24 05:06:29;;;;;;;1.50;1.30;;;6.20;98.20;;;;;;5358349;26;21188;-75
2024/04/24 05:08:58;;;;;;;1.50;1.20;;;6.30;98.20;;;;;;5384985;26;20540;-74
2024/04/24 05:11:29;;;;;;;1.50;1.30;;;6.30;98.20;;;;;;5360223;26;20966;-75
2024/04/24 05:13:58;;;;;;;1.50;1.30;;;6.30;98.20;;;;;;5365926;26;20812;-75
2024/04/24 05:16:27;;;;;;;1.50;1.20;;;6.30;98.20;;;;;;5354765;26;20547;-75
2024/04/24 05:18:55;;;;;;;1.50;1.20;;;6.30;98.20;;;;;;5370595;26;21104;-75
2024/04/24 05:21:24;;;;;;;1.50;1.20;;;6.40;98.20;;;;;;5349981;26;20490;-75
2024/04/24 05:23:53;;;;;;;1.50;1.20;;;6.40;98.20;;;;;;5358497;26;20938;-75
2024/04/24 05:29:10;;;;;;;1.50;1.20;;;6.50;98.20;;;;;;5370970;26;20504;-76
2024/04/24 05:31:39;;;;;;;1.50;1.20;;;6.60;98.20;;;;;;5340073;26;20536;-75
2024/04/24 05:34:09;;;;;;;1.50;1.23;;;6.60;98.20;;;;;;5365359;26;20624;-74
2024/04/24 05:36:38;;;;;;;1.50;1.20;;;6.80;98.20;;;;;;5354909;26;20986;-76
2024/04/24 05:39:07;;;;;;;1.50;1.30;;;6.90;98.20;;;;;;5355570;26;20477;-77
2024/04/24 05:41:35;;;;;;;1.50;1.30;;;7.00;98.20;;;;;;5346601;26;20491;-77
2024/04/24 05:44:04;;;;;;;1.50;1.20;;;7.10;98.20;;;;;;5352673;26;20470;-77
2024/04/24 05:46:42;;;;;;;1.50;1.40;;;7.20;98.20;;;;;;5352116;26;20546;-76
2024/04/24 05:49:11;;;;;;;1.50;1.27;;;7.20;98.20;;;;;;5357718;26;20480;-78
2024/04/24 05:51:43;;;;;;;1.50;1.30;;;7.20;98.20;;;;;;5345470;26;20557;-78
2024/04/24 05:54:12;;;;;;;1.50;1.30;;;7.30;98.20;;;;;;5352438;26;21099;-75
2024/04/24 05:56:41;;;;;;;1.50;1.23;;;7.30;98.20;;;;;;5338132;26;20498;-76
2024/04/24 05:59:10;;;;;;;1.50;1.20;;;7.30;98.20;;;;;;5346144;26;20942;-76
2024/04/24 06:01:41;;;;;;;1.50;1.30;;;7.40;98.20;;;;;;5349676;26;21014;-77
2024/04/24 06:04:10;;;;;;;1.50;1.30;;;7.40;98.20;;;;;;5362754;26;20477;-77
2024/04/24 06:06:40;;;;;;;1.50;1.30;;;7.50;98.20;;;;;;5359337;26;20557;-76
2024/04/24 06:09:08;;;;;;;1.50;1.20;;;7.40;98.20;;;;;;5362369;26;20470;-76
2024/04/24 06:11:41;;;;;;;1.50;1.20;;;7.40;98.20;;;;;;5357738;26;20497;-78
2024/04/24 06:14:10;;;;;;;1.50;1.30;;;7.50;98.20;;;;;;5353966;26;20508;-77
2024/04/24 06:16:42;;;;;;;1.50;1.30;;;7.40;98.20;;;;;;5355546;26;20537;-76
2024/04/24 06:19:11;;;;;;;1.50;1.30;;;7.50;98.20;;;;;;5350383;26;21256;-76
2024/04/24 06:21:40;;;;;;;1.50;1.30;;;7.60;98.20;;;;;;5345084;26;20513;-75
2024/04/24 06:24:09;;;;;;;1.50;1.20;;;7.70;98.20;;;;;;5357391;26;20453;-76
2024/04/24 06:26:38;;;;;;;1.50;1.20;;;7.80;98.20;;;;;;5347537;26;20536;-77
2024/04/24 06:29:07;;;;;;;1.50;1.20;;;8.00;98.20;;;;;;5362730;26;20476;-76
2024/04/24 06:31:36;;;;;;;1.50;1.30;;;8.10;98.20;;;;;;5341770;26;20498;-77
2024/04/24 06:34:07;;;;;;;1.50;1.10;;;8.20;98.20;;;;;;5354376;26;20560;-77
2024/04/24 06:36:36;;;;;;;1.50;1.30;;;8.30;98.20;;;;;;5338926;26;20517;-77
2024/04/24 06:39:03;;;;;;;1.50;1.30;;;8.40;98.20;;;;;;5347828;26;20498;-77
2024/04/24 06:41:32;;;;;;;1.50;1.17;;;8.40;98.20;;;;;;5354899;26;21549;-77
2024/04/24 06:44:01;;;;;;;1.50;1.10;;;8.60;98.20;;;;;;5357825;26;20536;-75
2024/04/24 06:46:30;;;;;;;1.50;1.10;;;8.80;98.20;;;;;;5337933;26;20490;-77
2024/04/24 06:48:59;;;;;;;1.50;1.20;;;8.80;98.20;;;;;;5347415;26;20586;-76
2024/04/24 06:51:30;;;;;;;1.50;1.20;;;8.90;98.20;;;;;;5354462;26;20487;-77
2024/04/24 06:53:59;;;;;;;1.50;1.20;;;8.90;98.20;;;;;;5358756;26;20509;-77
2024/04/24 06:56:27;;;;;;;1.50;1.10;;;8.90;98.20;;;;;;5338658;26;20499;-76
2024/04/24 06:58:56;;;;;;;1.50;1.20;;;9.00;98.20;;;;;;5331447;26;21082;-76
2024/04/24 07:01:25;;;;;;;1.50;1.20;;;8.90;98.20;;;;;;5347703;26;20780;-77
2024/04/24 07:03:55;;;;;;;1.47;1.10;;;9.00;98.20;;;;;;5359645;26;20515;-76
2024/04/24 07:06:23;;;;;;;1.50;1.13;;;8.90;98.20;;;;;;5337956;26;21091;-75
2024/04/24 07:08:55;;;;;;;1.50;1.20;;;9.00;98.20;;;;;;5339892;26;20453;-76
2024/04/24 07:11:24;;;;;;;1.50;1.10;;;9.00;98.20;;;;;;5351012;26;20484;-76
2024/04/24 07:13:53;;;;;;;1.50;1.10;;;9.10;98.20;;;;;;5363488;26;20541;-77
2024/04/24 07:16:22;;;;;;;1.50;1.20;;;9.10;98.20;;;;;;5334727;26;20498;-77
2024/04/24 07:18:51;;;;;;;1.47;1.10;;;9.00;98.20;;;;;;5338489;26;20537;-77
2024/04/24 07:21:28;;;;;;;1.50;1.10;;;8.80;98.20;;;;;;5350439;26;20492;-77
2024/04/24 07:24:00;;;;;;;1.50;1.10;;;8.80;98.20;;;;;;5367320;26;20538;-76
2024/04/24 07:26:29;;;;;;;1.50;1.10;;;9.00;98.20;;;;;;5353774;26;21136;-75
2024/04/24 07:28:58;;;;;;;1.50;1.10;;;9.00;98.20;;;;;;5356898;26;20556;-77
2024/04/24 07:31:27;;;;;;;1.50;1.20;;;9.00;98.20;;;;;;5354863;26;20631;-76
2024/04/24 07:33:56;;;;;;;1.50;1.10;;;9.10;98.20;;;;;;5373117;26;20488;-76
2024/04/24 07:36:25;;;;;;;1.50;1.10;;;9.30;98.20;;;;;;5346308;26;20545;-77
2024/04/24 07:38:54;;;;;;;1.50;1.10;;;9.40;98.20;;;;;;5358298;26;20537;-77
2024/04/24 07:41:26;;;;;;;1.50;1.20;;;9.50;98.20;;;;;;5356852;26;20497;-75
2024/04/24 07:43:54;;;;;;;1.50;1.10;;;9.60;98.20;;;;;;5379371;26;20536;-77
2024/04/24 07:46:27;;;;;;;1.50;1.20;;;9.60;98.20;;;;;;5342155;26;20497;-76
2024/04/24 07:48:56;;;;;;;1.50;1.10;;;9.70;98.20;;;;;;5365802;26;20937;-76
2024/04/24 07:51:25;;;;;;;1.50;1.20;;;9.90;98.20;;;;;;5367895;26;20587;-77
2024/04/24 07:53:53;;;;;;;1.50;1.20;;;10.00;98.20;;;;;;5379621;26;20477;-76
2024/04/24 07:56:25;;;;;;;1.50;1.10;;;10.00;98.20;;;;;;5362752;26;20555;-77
2024/04/24 07:58:54;;;;;;;1.50;1.10;;;9.90;98.20;;;;;;5363552;26;20472;-77
2024/04/24 08:01:23;;;;;;;1.50;1.10;;;9.80;98.20;;;;;;5356483;26;21040;-76
2024/04/24 08:03:52;;;;;;;1.50;1.10;;;10.00;98.20;;;;;;5370297;26;20456;-77
2024/04/24 08:06:21;;;;;;;1.47;1.10;;;10.20;98.20;;;;;;5362258;26;20574;-77
2024/04/24 08:08:50;;;;;;;1.47;1.00;;;10.40;98.20;;;;;;5377583;26;20525;-76
2024/04/24 08:11:19;;;;;;;1.80;1.70;;;10.30;98.20;;;;;;5363553;26;20541;-76
2024/04/24 08:13:50;;;;;;;1.50;1.00;;;10.20;98.20;;;;;;5371942;26;20817;-77
2024/04/24 08:16:19;;;;;;;1.50;1.10;;;10.20;98.20;;;;;;5357633;26;20540;-77
2024/04/24 08:18:49;;;;;;;1.50;1.13;;;10.30;98.20;;;;;;5367056;26;20477;-76
2024/04/24 08:21:18;;;;;;;1.50;1.10;;;10.40;98.20;;;;;;5355728;26;20500;-76
2024/04/24 08:23:48;;;;;;;1.50;1.00;;;10.70;98.20;;;;;;5372691;26;20541;-76
2024/04/24 08:26:16;;;;;;;1.50;1.10;;;10.70;98.20;;;;;;5357583;26;20553;-76
2024/04/24 08:28:45;;;;;;;1.50;1.03;;;11.00;98.20;;;;;;5371598;26;21144;-77
2024/04/24 08:31:16;;;;;;;1.50;1.00;;;11.20;98.20;;;;;;5367429;26;21038;-77
2024/04/24 08:33:47;;;;;;;1.50;1.10;;;11.20;98.20;;;;;;5375537;26;20473;-76
2024/04/24 08:36:16;;;;;;;1.50;1.00;;;11.20;97.60;;;;;;5372376;26;20558;-78
2024/04/24 08:38:45;;;;;;;1.50;1.03;;;11.00;98.20;;;;;;5371270;26;20516;-75
2024/04/24 08:41:15;;;;;;;1.50;1.00;;;10.50;98.20;;;;;;5352207;26;20493;-74
2024/04/24 08:43:44;;;;;;;1.50;1.10;;;10.10;98.20;;;;;;5362826;26;20600;-75
2024/04/24 08:46:21;;;;;;;1.50;1.10;;;9.70;98.20;;;;;;5356344;26;20958;-74
2024/04/24 08:48:53;;;;;;;1.50;1.10;;;9.40;98.20;;;;;;5362704;26;20558;-76
2024/04/24 08:51:24;;;;;;;1.50;1.03;;;9.20;98.20;;;;;;5365898;26;20579;-77
2024/04/24 08:54:01;;;;;;;1.50;1.00;;;9.10;98.20;;;;;;5373862;26;20516;-78
2024/04/24 08:56:36;;;;;;;1.43;1.10;;;9.20;98.20;;;;;;5354575;26;20485;-78
2024/04/24 08:59:17;;;;;;;1.50;1.10;;;9.20;98.20;;;;;;5368414;26;20488;-77
2024/04/24 09:01:57;;;;;;;1.50;1.00;;;9.30;98.20;;;;;;5361435;26;20927;-77
2024/04/24 09:04:27;;;;;;;1.50;1.10;;;9.40;98.20;;;;;;5367604;26;20519;-77
2024/04/24 09:06:56;;;;;;;1.47;1.10;;;9.60;98.20;;;;;;5363060;26;20489;-77
2024/04/24 09:09:25;;;;;;;1.50;1.10;;;9.90;98.20;;;;;;5368858;26;20488;-78
2024/04/24 09:11:55;;;;;;;1.50;1.10;;;10.00;98.20;;;;;;5355511;26;20527;-78
2024/04/24 09:14:23;;;;;;;1.43;1.00;;;10.30;98.20;;;;;;5362970;26;20905;-77
2024/04/24 09:16:56;;;;;;;1.50;1.20;;;10.70;98.20;;;;;;5355465;26;20484;-77
2024/04/24 09:19:23;;;;;;;1.50;1.00;;;11.30;98.20;;;;;;5362026;26;20905;-78
2024/04/24 09:21:57;;;;;;;1.50;1.07;;;11.60;98.20;;;;;;5362116;26;20493;-77
2024/04/24 09:24:48;;;;;;;1.50;1.00;;;11.60;98.20;;;;;;5367265;26;20527;-77
2024/04/24 09:27:20;;;;;;;1.50;1.10;;;11.40;98.20;;;;;;5360824;26;20554;-78
2024/04/24 09:29:49;;;;;;;1.60;1.10;;;11.00;98.20;;;;;;5370036;26;20510;-77
2024/04/24 09:32:24;;;;;;;1.50;1.10;;;10.60;98.20;;;;;;5367716;26;21082;-77
2024/04/24 09:34:53;;;;;;;1.50;1.10;;;10.40;98.20;;;;;;5369253;26;20468;-78
2024/04/24 09:37:22;;;;;;;1.50;1.00;;;10.30;98.20;;;;;;5354457;26;20489;-77
2024/04/24 09:39:51;;;;;;;1.50;1.00;;;10.20;98.20;;;;;;5362758;26;20477;-77
2024/04/24 09:42:20;;;;;;;1.50;1.00;;;10.10;98.20;;;;;;5356529;26;20546;-78
2024/04/24 09:44:50;;;;;;;1.50;1.10;;;10.10;98.20;;;;;;5358348;26;20590;-78
2024/04/24 09:47:23;;;;;;;1.50;1.00;;;10.10;98.20;;;;;;5355496;26;20988;-77
2024/04/24 09:49:56;;;;;;;1.50;1.20;;;10.00;98.20;;;;;;5355960;26;20578;-77
2024/04/24 09:52:25;;;;;;;1.50;1.00;;;10.00;98.20;;;;;;5365220;26;20517;-78
2024/04/24 09:54:54;;;;;;;1.50;1.10;;;10.10;98.20;;;;;;5364066;26;21007;-77
2024/04/24 09:57:29;;;;;;;1.50;1.10;;;10.20;98.20;;;;;;5372973;26;20498;-78
2024/04/24 10:00:00;;;;;;;1.50;1.00;;;10.30;98.20;;;;;;5365888;26;20493;-77
2024/04/24 10:02:34;;;;;;;1.50;1.10;;;10.50;98.20;;;;;;5362275;26;20491;-77
2024/04/24 10:05:12;;;;;;;1.47;1.00;;;10.60;98.20;;;;;;5363756;26;20571;-77
2024/04/24 10:07:48;;;;;;;1.50;1.10;;;10.90;98.20;;;;;;5365287;26;20540;-77
2024/04/24 10:10:19;;;;;;;1.47;1.00;;;11.10;98.20;;;;;;5364411;26;20528;-77
2024/04/24 10:12:52;;;;;;;1.50;1.07;;;11.20;98.20;;;;;;5374318;26;20484;-77
2024/04/24 10:15:25;;;;;;;1.50;1.10;;;11.30;98.20;;;;;;5365220;26;20527;-78
2024/04/24 10:17:59;;;;;;;1.47;1.00;;;11.30;98.20;;;;;;5362995;26;20473;-77
2024/04/24 10:20:30;;;;;;;1.50;1.10;;;11.30;97.90;;;;;;5362694;26;20754;-76
2024/04/24 10:23:01;;;;;;;1.43;1.00;;;11.30;98.20;;;;;;5386688;26;20483;-77
2024/04/24 10:25:31;;;;;;;1.50;1.10;;;11.40;98.20;;;;;;5363125;26;20481;-78
2024/04/24 10:28:01;;;;;;;1.50;1.10;;;11.60;98.20;;;;;;5361612;26;20492;-78
2024/04/24 10:30:31;;;;;;;1.50;1.00;;;11.90;97.00;;;;;;5375587;26;20731;-77
2024/04/24 10:33:04;;;;;;;1.47;1.00;;;12.00;94.90;;;;;;5358590;26;20532;-77
2024/04/24 10:35:33;;;;;;;1.50;1.00;;;12.10;96.00;;;;;;5373328;26;20457;-78
2024/04/24 10:38:06;;;;;;;1.50;1.03;;;12.00;96.90;;;;;;5361835;26;20544;-78
2024/04/24 10:40:36;;;;;;;1.50;1.00;;;11.80;97.00;;;;;;5369922;26;20588;-78
2024/04/24 10:43:06;;;;;;;1.47;1.00;;;11.60;98.20;;;;;;5359141;26;20500;-76
2024/04/24 10:45:37;;;;;;;1.50;1.00;;;11.40;98.20;;;;;;5366175;26;20458;-78
2024/04/24 10:48:12;;;;;;;1.50;1.00;;;11.40;98.20;;;;;;5366633;26;20489;-78
2024/04/24 10:50:44;;;;;;;1.47;1.00;;;11.50;96.50;;;;;;5361462;26;20469;-78
2024/04/24 10:53:16;;;;;;;1.50;1.10;;;11.60;98.20;;;;;;5321341;26;21102;-78
2024/04/24 10:55:55;;;;;;;1.47;1.00;;;11.80;98.20;;;;;;5368872;26;20582;-77
2024/04/24 10:58:24;;;;;;;1.50;1.10;;;11.80;97.80;;;;;;5337906;26;20480;-78
2024/04/24 11:00:53;;;;;;;1.50;1.03;;;11.80;98.10;;;;;;5345374;26;20597;-78
2024/04/24 11:03:27;;;;;;;1.50;1.00;;;11.70;98.20;;;;;;5364272;26;20567;-79
2024/04/24 11:05:57;;;;;;;1.50;1.10;;;11.60;98.20;;;;;;5354608;26;20858;-79
2024/04/24 11:08:29;;;;;;;1.50;1.00;;;11.60;98.20;;;;;;5362429;26;21107;-78
2024/04/24 11:10:59;;;;;;;1.47;1.00;;;11.60;98.20;;;;;;5332915;26;20644;-77
2024/04/24 11:13:28;;;;;;;1.50;1.10;;;11.70;98.20;;;;;;5357158;26;20537;-78
2024/04/24 11:16:08;;;;;;;1.50;1.00;;;11.60;98.20;;;;;;5346038;26;21003;-78
2024/04/24 11:18:46;;;;;;;1.50;1.00;;;11.50;98.20;;;;;;5362927;26;20568;-77
2024/04/24 11:21:34;;;;;;;1.50;1.10;;;11.10;98.20;;;;;;5344559;26;21071;-78
2024/04/24 11:24:03;;;;;;;1.50;1.10;;;10.70;98.20;;;;;;5361300;26;20503;-77
2024/04/24 11:26:33;;;;;;;1.50;1.00;;;10.30;98.20;;;;;;5355923;26;20536;-78
2024/04/24 11:29:14;;;;;;;1.50;1.10;;;10.30;98.20;;;;;;5364309;26;20484;-78
2024/04/24 11:31:48;;;;;;;1.50;1.00;;;10.20;98.20;;;;;;5342498;26;20504;-77
2024/04/24 11:34:21;;;;;;;1.50;1.10;;;10.20;98.20;;;;;;5357646;26;20534;-77
2024/04/24 11:36:51;;;;;;;1.50;1.10;;;10.30;98.20;;;;;;5355913;26;20507;-76
2024/04/24 11:39:22;;;;;;;1.43;1.00;;;10.40;98.20;;;;;;5367216;26;20587;-78
2024/04/24 11:41:54;;;;;;;1.50;1.10;;;10.40;98.20;;;;;;5351413;26;21167;-78
2024/04/24 11:44:25;;;;;;;1.50;1.10;;;10.40;98.20;;;;;;5362295;26;20536;-77
2024/04/24 11:46:56;;;;;;;1.50;1.00;;;10.70;98.20;;;;;;5361220;26;20644;-78
2024/04/24 11:49:28;;;;;;;1.43;1.00;;;11.00;98.20;;;;;;5361406;26;20478;-77
2024/04/24 11:51:56;;;;;;;1.43;1.00;;;11.30;98.20;;;;;;5358743;26;20488;-77
2024/04/24 11:54:29;;;;;;;1.50;0.93;;;11.60;98.20;;;;;;5372085;26;20472;-78
2024/04/24 11:57:04;;;;;;;1.50;1.00;;;11.80;98.20;;;;;;5354834;26;20638;-77
2024/04/24 11:59:33;;;;;;;1.43;1.00;;;12.20;98.20;;;;;;5360876;26;20587;-76
2024/04/24 12:02:02;;;;;;;1.50;1.00;;;12.60;98.20;;;;;;5352554;26;20904;-77
2024/04/24 12:04:33;;;;;;;1.50;1.00;;;12.90;98.20;;;;;;5360575;26;20490;-77
2024/04/24 12:07:06;;;;;;;1.50;1.00;;;13.10;98.20;;;;;;5352524;26;20943;-77
2024/04/24 12:09:39;;;;;;;1.50;1.00;;;13.30;98.20;;;;;;5363831;26;20489;-77
2024/04/24 12:12:09;;;;;;;1.47;1.00;;;13.60;98.20;;;;;;5346577;26;20583;-76
2024/04/24 12:14:41;;;;;;;1.50;1.00;;;14.00;98.20;;;;;;5367194;26;20572;-77
2024/04/24 12:17:10;;;;;;;1.47;0.90;;;14.20;98.20;;;;;;5354336;26;20657;-77
2024/04/24 12:19:43;;;;;;;1.50;1.00;;;14.30;98.20;;;;;;5365778;26;20537;-76
2024/04/24 12:22:12;;;;;;;1.50;1.00;;;14.50;98.20;;;;;;5358389;26;20492;-76
2024/04/24 12:24:41;;;;;;;1.50;1.00;;;14.50;98.20;;;;;;5357956;26;20473;-77
2024/04/24 12:27:10;;;;;;;1.47;0.90;;;14.40;98.20;;;;;;5361211;26;20927;-77
2024/04/24 12:29:39;;;;;;;1.50;0.93;;;14.10;97.30;;;;;;5376656;26;20536;-77
2024/04/24 12:32:12;;;;;;;1.50;0.90;;;13.70;98.20;;;;;;5360087;26;20477;-77
2024/04/24 12:34:44;;;;;;;1.50;0.90;;;13.30;98.20;;;;;;5370321;26;20470;-76
2024/04/24 12:38:04;;;;;;;1.47;1.00;;;12.60;98.20;;;;;;5348659;26;20488;-77
2024/04/24 12:40:38;;;;;;;1.50;1.00;;;12.10;98.20;;;;;;5360685;26;20594;-78
2024/04/24 12:43:07;;;;;;;1.50;1.00;;;11.70;98.20;;;;;;5352838;26;20490;-77
2024/04/24 12:45:38;;;;;;;1.50;1.00;;;11.50;98.20;;;;;;5357053;26;20529;-77
2024/04/24 12:48:08;;;;;;;1.50;0.97;;;11.40;98.20;;;;;;5360340;26;20547;-77
2024/04/24 12:50:40;;;;;;;1.50;1.00;;;11.60;98.20;;;;;;5364172;26;20521;-77
2024/04/24 12:53:10;;;;;;;1.50;1.00;;;12.10;98.20;;;;;;5354912;26;20477;-77
2024/04/24 12:55:39;;;;;;;1.50;1.00;;;12.50;98.20;;;;;;5356429;26;21082;-77
2024/04/24 12:58:10;;;;;;;1.40;0.90;;;12.80;98.20;;;;;;5353440;26;20539;-77
2024/04/24 13:00:40;;;;;;;1.50;1.10;;;13.00;98.20;;;;;;5366310;26;20548;-77
2024/04/24 13:03:09;;;;;;;1.43;0.90;;;13.30;98.20;;;;;;5352543;26;20533;-77
2024/04/24 13:05:41;;;;;;;1.43;1.00;;;13.50;98.20;;;;;;5372460;26;20472;-77
2024/04/24 13:08:10;;;;;;;1.50;0.90;;;13.60;98.20;;;;;;5350465;26;20573;-77
2024/04/24 13:10:42;;;;;;;1.40;1.00;;;13.50;98.20;;;;;;5372981;26;20913;-77
2024/04/24 13:13:11;;;;;;;1.47;0.97;;;13.30;98.20;;;;;;5347067;26;20549;-77